KMBL

Manistee County-Blacker Airport

Airport
ICAO code
KMBL
Summary
ICAO Region
NAM
ICAO Territory
Location

Manistee, Michigan,

Coordinates
44° 16' 20" N , 86° 14' 48" W
KCC
Airport CFIT
Altimeter Temperature Error Correction
Airport GND
Aircraft Ground De/Anti Icing
Airport WX
Lake Effect Snow
Metar
Observation
KMBL 031956Z AUTO VRB04KT 10SM CLR 17/05 A3034 RMK AO2 SLP277 T01670050
Station
Manistee, Manistee County-Blacker Airport
Date/Time
2022-10-03 19:56:00
Wind speed
04 kts
Lowest cloud amount
n/a
Temperature
16.7°C
Dew point
5°C
Humidity
45%
Weather condition
n/a

Description

Manistee County-Blacker Airport is a public use airport located 6 km northeast of the central business district of Manistee, a city in Manistee County, Michigan.

Climatology

Humid Continental climate (Köppen climate classification Dfb) - Variable weather patterns and a large seasonal temperature variance. Summers are often warm and humid with frequent thunderstorms and winters can be very cold with frequent snowfall and persistent snow cover.

Runways

Designator Length Width Surface Rops
18/36 829 23 ASP Yes/Yes
9/27 1677 30 ASP Yes/Yes

Airport map

Aerial View

SKYbrary Partners:

Safety knowledge contributed by: